createdAt,value
2023-11-09T00:01:54.617Z,100753.53
2023-11-09T00:05:03.811Z,100750.62
2023-11-09T00:08:12.626Z,100750.41
2023-11-09T00:11:27.642Z,100743.28
2023-11-09T00:14:42.632Z,100748.13
2023-11-09T00:17:51.473Z,100734.41
2023-11-09T00:21:00.620Z,100741.69
2023-11-09T00:24:15.665Z,100688.91
2023-11-09T00:27:29.622Z,100748.25
2023-11-09T00:30:38.245Z,100742.84
2023-11-09T00:33:46.669Z,100737.19
2023-11-09T00:37:01.658Z,100731.22
2023-11-09T00:40:05.961Z,100732.59
2023-11-09T00:43:27.679Z,100730.72
2023-11-09T00:46:29.893Z,100723.25
2023-11-09T00:49:44.655Z,100725.22
2023-11-09T00:52:46.585Z,100727.50
2023-11-09T00:56:01.683Z,100725.78
2023-11-09T00:59:03.818Z,100729.13
2023-11-09T01:02:18.671Z,100729.44
2023-11-09T01:05:28.702Z,100735.31
2023-11-09T01:08:43.648Z,100727.84
2023-11-09T01:11:58.645Z,100729.38
2023-11-09T01:15:00.564Z,100731.41
2023-11-09T01:18:15.644Z,100723.94
2023-11-09T01:21:18.152Z,100729.69
2023-11-09T01:24:32.656Z,100732.00
2023-11-09T01:27:47.620Z,100730.72
2023-11-09T01:30:56.457Z,100732.47
2023-11-09T01:34:15.291Z,100730.62
2023-11-09T01:37:24.178Z,100735.56
2023-11-09T01:40:32.663Z,100736.81
2023-11-09T01:44:02.627Z,100736.62
2023-11-09T01:47:04.939Z,100717.94
2023-11-09T01:50:21.648Z,100732.44
2023-11-09T01:53:31.453Z,100727.50
2023-11-09T01:56:47.654Z,100732.91
2023-11-09T01:59:59.667Z,100729.66
2023-11-09T02:03:15.657Z,100722.19
2023-11-09T02:06:24.973Z,100725.63
2023-11-09T02:09:46.648Z,100726.22
2023-11-09T02:12:55.330Z,100721.84
2023-11-09T02:16:12.686Z,100727.97
2023-11-09T02:19:25.679Z,100728.28
2023-11-09T02:22:38.219Z,100719.53
2023-11-09T02:25:46.640Z,100727.16
2023-11-09T02:28:55.536Z,100722.88
2023-11-09T02:32:03.633Z,100720.59
2023-11-09T02:35:18.672Z,100720.47
2023-11-09T02:38:27.654Z,100711.37
2023-11-09T02:41:36.468Z,100705.94
2023-11-09T02:44:58.624Z,100710.44
2023-11-09T02:48:00.622Z,100712.72
2023-11-09T02:51:16.638Z,100717.66
2023-11-09T02:54:18.822Z,100719.59
2023-11-09T02:57:34.638Z,100719.75
2023-11-09T03:00:36.743Z,100716.28
2023-11-09T03:03:51.612Z,100719.28
2023-11-09T03:07:00.598Z,100717.09
2023-11-09T03:10:15.710Z,100714.81
2023-11-09T03:13:31.735Z,100713.50
2023-11-09T03:16:33.919Z,100718.94
2023-11-09T03:19:48.648Z,100718.31
2023-11-09T03:23:03.645Z,100720.97
2023-11-09T03:26:12.469Z,100715.22
2023-11-09T03:29:27.623Z,100711.66
2023-11-09T03:32:29.550Z,100711.31
2023-11-09T03:35:45.655Z,100716.97
2023-11-09T03:38:54.138Z,100714.66
2023-11-09T03:42:02.671Z,100712.47
2023-11-09T03:45:17.681Z,100712.38
2023-11-09T03:48:26.310Z,100712.38
2023-11-09T03:51:41.641Z,100706.38
2023-11-09T03:54:49.653Z,100708.09
2023-11-09T03:57:58.420Z,100703.94
2023-11-09T04:01:13.715Z,100700.94
2023-11-09T04:04:22.774Z,100698.03
2023-11-09T04:07:37.670Z,100693.84
2023-11-09T04:10:52.659Z,100689.03
2023-11-09T04:14:07.640Z,100687.81
2023-11-09T04:17:15.642Z,100707.97
2023-11-09T04:20:30.650Z,100685.19
2023-11-09T04:23:32.785Z,100702.44
2023-11-09T04:26:47.632Z,100698.88
2023-11-09T04:29:56.505Z,100699.28
2023-11-09T04:33:11.670Z,100690.19
2023-11-09T04:36:14.097Z,100689.16
2023-11-09T04:39:28.642Z,100693.66
2023-11-09T04:42:37.176Z,100689.03
2023-11-09T04:45:58.694Z,100689.75
2023-11-09T04:49:07.747Z,100694.13
2023-11-09T04:52:16.285Z,100696.62
2023-11-09T04:55:31.699Z,100697.69
2023-11-09T04:58:40.436Z,100696.72
2023-11-09T05:01:48.635Z,100692.94
2023-11-09T05:04:57.444Z,100687.94
2023-11-09T05:08:05.618Z,100691.50
2023-11-09T05:11:20.626Z,100690.91
2023-11-09T05:14:29.635Z,100697.91
2023-11-09T05:17:45.699Z,100697.59
2023-11-09T05:20:49.797Z,100700.97
2023-11-09T05:24:04.628Z,100683.22
2023-11-09T05:27:13.472Z,100699.00
2023-11-09T05:30:22.642Z,100697.59
2023-11-09T05:33:31.187Z,100695.41
2023-11-09T05:36:39.647Z,100683.66
2023-11-09T05:39:48.459Z,100687.31
2023-11-09T05:43:03.692Z,100684.47
2023-11-09T05:46:12.602Z,100673.31
2023-11-09T05:49:20.675Z,100675.75
2023-11-09T05:52:29.198Z,100667.81
2023-11-09T05:55:43.703Z,100677.63
2023-11-09T05:58:58.746Z,100676.00
2023-11-09T06:02:07.483Z,100683.50
2023-11-09T06:05:22.678Z,100687.47
2023-11-09T06:08:31.640Z,100685.56
2023-11-09T06:11:46.634Z,100689.62
2023-11-09T06:15:01.665Z,100691.16
2023-11-09T06:18:04.369Z,100687.84
2023-11-09T06:21:19.638Z,100693.41
2023-11-09T06:24:21.568Z,100694.47
2023-11-09T06:27:36.639Z,100703.56
2023-11-09T06:30:38.530Z,100709.62
2023-11-09T06:33:53.661Z,100710.53
2023-11-09T06:37:02.598Z,100708.63
2023-11-09T06:40:11.653Z,100709.91
2023-11-09T06:43:33.649Z,100705.69
2023-11-09T06:46:35.732Z,100712.47
2023-11-09T06:49:50.652Z,100717.78
2023-11-09T06:53:00.332Z,100726.00
2023-11-09T06:56:15.633Z,100723.00
2023-11-09T06:59:24.668Z,100713.44
2023-11-09T07:02:34.361Z,100721.16
2023-11-09T07:05:49.770Z,100718.41
2023-11-09T07:08:52.011Z,100719.91
2023-11-09T07:12:06.627Z,100713.44
2023-11-09T07:15:15.559Z,100712.59
2023-11-09T07:18:24.709Z,100712.56
2023-11-09T07:21:33.492Z,100705.66
2023-11-09T07:24:52.488Z,100706.88
2023-11-09T07:28:04.668Z,100706.12
2023-11-09T07:31:13.556Z,100714.59
2023-11-09T07:34:28.673Z,100714.03
2023-11-09T07:37:37.691Z,100707.75
2023-11-09T07:40:47.786Z,100712.09
2023-11-09T07:44:03.617Z,100699.75
2023-11-09T07:47:12.443Z,100701.72
2023-11-09T07:50:28.644Z,100710.19
2023-11-09T07:53:30.472Z,100702.09
2023-11-09T07:56:46.629Z,100699.03
2023-11-09T07:59:54.624Z,100698.37
2023-11-09T08:03:13.344Z,100700.84
2023-11-09T08:06:28.639Z,100702.53
2023-11-09T08:09:36.736Z,100693.72
2023-11-09T08:12:51.681Z,100694.00
2023-11-09T08:15:59.630Z,100686.84
2023-11-09T08:19:08.641Z,100680.38
2023-11-09T08:22:17.624Z,100679.88
2023-11-09T08:25:33.703Z,100684.19
2023-11-09T08:28:48.634Z,100681.03
2023-11-09T08:32:03.666Z,100682.13
2023-11-09T08:35:08.790Z,100668.06
2023-11-09T08:38:23.659Z,100679.34
2023-11-09T08:41:32.212Z,100676.44
2023-11-09T08:44:53.631Z,100675.91
2023-11-09T08:48:08.823Z,100679.69
2023-11-09T08:51:23.663Z,100664.78
2023-11-09T08:54:32.580Z,100670.41
2023-11-09T08:57:48.649Z,100680.87
2023-11-09T09:01:03.628Z,100668.91
2023-11-09T09:04:18.762Z,100671.31
2023-11-09T09:07:33.709Z,100669.69
2023-11-09T09:10:43.687Z,100668.03
2023-11-09T09:13:52.458Z,100665.22
2023-11-09T09:17:07.661Z,100663.22
2023-11-09T09:20:24.732Z,100654.69
2023-11-09T09:23:33.208Z,100649.94
2023-11-09T09:26:47.829Z,100646.78
2023-11-09T09:29:56.177Z,100638.06
2023-11-09T09:33:05.810Z,100634.50
2023-11-09T09:36:14.502Z,100633.44
2023-11-09T09:39:30.636Z,100624.06
2023-11-09T09:42:47.397Z,100627.72
2023-11-09T09:46:04.659Z,100633.69
2023-11-09T09:49:13.648Z,100642.50
2023-11-09T09:52:29.676Z,100630.84
2023-11-09T09:55:38.927Z,100632.94
2023-11-09T09:58:56.652Z,100629.00
2023-11-09T10:02:17.637Z,100618.94
2023-11-09T10:05:29.811Z,100624.97
2023-11-09T10:08:38.649Z,100620.31
2023-11-09T10:11:50.475Z,100615.50
2023-11-09T10:14:58.619Z,100607.94
2023-11-09T10:18:14.706Z,100603.19
2023-11-09T10:21:23.926Z,100600.59
2023-11-09T10:24:39.644Z,100612.00
2023-11-09T10:27:48.564Z,100604.41
2023-11-09T10:31:03.655Z,100586.41
2023-11-09T10:34:11.792Z,100595.19
2023-11-09T10:37:20.408Z,100597.28
2023-11-09T10:40:36.706Z,100597.91
2023-11-09T10:43:45.712Z,100590.28
2023-11-09T10:47:09.123Z,100585.25
2023-11-09T10:50:26.675Z,100578.56
2023-11-09T10:53:35.634Z,100572.19
2023-11-09T10:56:51.646Z,100579.66
2023-11-09T11:00:06.661Z,100583.09
2023-11-09T11:03:27.371Z,100573.00
2023-11-09T11:06:53.637Z,100565.87
2023-11-09T11:10:02.662Z,100555.69
2023-11-09T11:13:12.936Z,100548.56
2023-11-09T11:16:59.677Z,100540.03
2023-11-09T11:21:03.679Z,100547.25
2023-11-09T11:24:41.672Z,100532.06
2023-11-09T11:28:01.690Z,100522.09
2023-11-09T11:31:10.471Z,100522.09
2023-11-09T11:34:20.722Z,100518.34
2023-11-09T11:37:29.606Z,100524.66
2023-11-09T11:40:44.895Z,100518.97
2023-11-09T11:43:54.406Z,100517.00
2023-11-09T11:47:09.671Z,100509.03
2023-11-09T11:50:18.736Z,100515.72
2023-11-09T11:53:37.553Z,100514.53
2023-11-09T11:56:57.653Z,100508.47
2023-11-09T12:00:07.796Z,100505.53
2023-11-09T12:03:17.653Z,100504.34
2023-11-09T12:06:28.503Z,100509.38
2023-11-09T12:09:37.673Z,100488.66
2023-11-09T12:13:02.745Z,100486.22
2023-11-09T12:16:11.339Z,100481.97
2023-11-09T12:19:20.073Z,100476.88
2023-11-09T12:22:34.704Z,100473.63
2023-11-09T12:26:02.665Z,100473.84
2023-11-09T12:29:11.790Z,100456.75
2023-11-09T12:32:20.743Z,100467.00
2023-11-09T12:35:35.698Z,100452.44
2023-11-09T12:38:37.828Z,100446.97
2023-11-09T12:41:52.727Z,100451.47
2023-11-09T12:45:17.745Z,100441.09
2023-11-09T12:48:19.694Z,100452.66
2023-11-09T12:51:34.641Z,100437.81
2023-11-09T12:54:43.661Z,100438.62
2023-11-09T12:57:58.649Z,100442.81
2023-11-09T13:01:07.672Z,100444.09
2023-11-09T13:04:16.438Z,100421.78
2023-11-09T13:07:31.778Z,100426.66
2023-11-09T13:10:33.990Z,100424.56
2023-11-09T13:13:48.709Z,100413.63
2023-11-09T13:16:57.554Z,100410.03
2023-11-09T13:20:05.795Z,100415.72
2023-11-09T13:23:21.664Z,100405.31
2023-11-09T13:26:23.663Z,100408.72
2023-11-09T13:29:39.837Z,100397.06
2023-11-09T13:32:42.885Z,100403.16
2023-11-09T13:35:58.669Z,100401.34
2023-11-09T13:39:06.677Z,100398.47
2023-11-09T13:42:15.279Z,100395.09
2023-11-09T13:45:30.701Z,100395.69
2023-11-09T13:48:45.757Z,100394.88
2023-11-09T13:51:56.699Z,100391.59
2023-11-09T13:55:05.768Z,100388.50
2023-11-09T13:58:14.836Z,100383.78
2023-11-09T14:01:26.332Z,100372.72
2023-11-09T14:04:41.739Z,100380.56
2023-11-09T14:07:56.686Z,100381.88
2023-11-09T14:11:05.557Z,100378.47
2023-11-09T14:14:13.694Z,100375.69
2023-11-09T14:17:28.737Z,100378.69
2023-11-09T14:20:30.782Z,100374.09
2023-11-09T14:23:45.723Z,100376.66
2023-11-09T14:26:54.530Z,100369.47
2023-11-09T14:30:09.677Z,100364.78
2023-11-09T14:33:24.730Z,100361.03
2023-11-09T14:36:39.747Z,100359.63
2023-11-09T14:39:51.689Z,100361.59
2023-11-09T14:43:07.613Z,100361.69
2023-11-09T14:46:32.724Z,100345.72
2023-11-09T14:49:34.772Z,100352.72
2023-11-09T14:52:49.684Z,100347.72
2023-11-09T14:56:04.702Z,100347.59
2023-11-09T14:59:13.636Z,100334.75
2023-11-09T15:02:22.818Z,100340.50
2023-11-09T15:05:37.663Z,100326.06
2023-11-09T15:08:46.541Z,100333.19
2023-11-09T15:12:01.700Z,100322.16
2023-11-09T15:15:17.709Z,100319.53
2023-11-09T15:18:32.767Z,100328.84
2023-11-09T15:21:47.715Z,100325.78
2023-11-09T15:24:55.703Z,100326.19
2023-11-09T15:28:04.434Z,100325.84
2023-11-09T15:31:12.682Z,100326.22
2023-11-09T15:34:21.324Z,100323.06
2023-11-09T15:37:38.397Z,100308.19
2023-11-09T15:41:16.537Z,100326.91
2023-11-09T15:44:23.705Z,100322.19
2023-11-09T15:47:38.768Z,100325.44
2023-11-09T15:50:47.227Z,100324.97
2023-11-09T15:54:01.712Z,100321.34
2023-11-09T15:57:16.714Z,100321.91
2023-11-09T16:00:27.730Z,100322.50
2023-11-09T16:03:42.824Z,100321.69
2023-11-09T16:06:44.719Z,100324.47
2023-11-09T16:10:03.930Z,100315.91
2023-11-09T16:13:20.776Z,100312.00
2023-11-09T16:16:29.733Z,100327.47
2023-11-09T16:19:44.720Z,100318.09
2023-11-09T16:22:53.284Z,100325.91
2023-11-09T16:26:01.871Z,100327.03
2023-11-09T16:29:16.697Z,100324.41
2023-11-09T16:32:25.548Z,100315.41
2023-11-09T16:35:34.699Z,100314.44
2023-11-09T16:38:43.676Z,100310.47
2023-11-09T16:41:52.717Z,100313.69
2023-11-09T16:45:08.434Z,100317.81
2023-11-09T16:48:23.700Z,100320.00
2023-11-09T16:51:31.717Z,100324.31
2023-11-09T16:54:40.391Z,100326.47
2023-11-09T16:57:55.697Z,100318.22
2023-11-09T17:00:57.657Z,100319.56
2023-11-09T17:04:12.741Z,100311.53
2023-11-09T17:07:20.720Z,100321.75
2023-11-09T17:10:49.275Z,100322.34
2023-11-09T17:13:57.711Z,100325.56
2023-11-09T17:17:06.471Z,100323.47
2023-11-09T17:20:21.700Z,100320.84
2023-11-09T17:23:30.337Z,100316.38
2023-11-09T17:26:38.705Z,100311.31
2023-11-09T17:29:53.779Z,100303.31
2023-11-09T17:33:04.185Z,100301.22
2023-11-09T17:36:19.707Z,100305.50
2023-11-09T17:39:28.460Z,100295.34
2023-11-09T17:42:44.697Z,100297.78
2023-11-09T17:46:00.237Z,100303.72
2023-11-09T17:49:14.684Z,100295.47
2023-11-09T17:52:30.725Z,100289.31
2023-11-09T17:55:39.727Z,100300.81
2023-11-09T17:58:49.510Z,100289.31
2023-11-09T18:01:59.202Z,100289.91
2023-11-09T18:05:18.118Z,100286.97
2023-11-09T18:08:27.218Z,100275.75
2023-11-09T18:11:43.778Z,100285.09
2023-11-09T18:15:01.144Z,100282.72
2023-11-09T18:18:17.132Z,100283.25
2023-11-09T18:21:26.699Z,100275.75
2023-11-09T18:24:35.733Z,100283.25
2023-11-09T18:27:51.024Z,100273.66
2023-11-09T18:30:59.705Z,100279.53
2023-11-09T18:34:14.934Z,100276.88
2023-11-09T18:37:23.769Z,100282.78
2023-11-09T18:40:38.759Z,100280.66
2023-11-09T18:44:00.781Z,100282.53
2023-11-09T18:47:10.169Z,100272.13
2023-11-09T18:53:39.136Z,100271.63
2023-11-09T18:56:54.769Z,100276.72
2023-11-09T19:00:11.235Z,100275.94
2023-11-09T19:06:33.755Z,100267.19
2023-11-09T19:09:42.844Z,100261.31
2023-11-09T19:12:51.835Z,100266.12
2023-11-09T19:16:03.248Z,100256.00
2023-11-09T19:19:13.046Z,100253.63
2023-11-09T19:22:29.306Z,100245.59
2023-11-09T19:25:46.058Z,100251.47
2023-11-09T19:28:57.294Z,100244.56
2023-11-09T19:32:14.370Z,100244.03
2023-11-09T19:35:31.233Z,100244.03
2023-11-09T19:38:34.134Z,100245.34
2023-11-09T19:41:56.181Z,100245.84
2023-11-09T19:45:12.168Z,100244.78
2023-11-09T19:48:21.952Z,100245.31
2023-11-09T19:51:38.602Z,100242.34
2023-11-09T19:54:48.493Z,100239.69
2023-11-09T19:58:06.354Z,100231.38
2023-11-09T20:01:17.266Z,100234.78
2023-11-09T20:04:27.595Z,100230.22
2023-11-09T20:07:38.353Z,100238.47
2023-11-09T20:10:48.433Z,100239.50
2023-11-09T20:14:05.093Z,100234.44
2023-11-09T20:17:15.183Z,100231.47
2023-11-09T20:20:30.884Z,100229.31
2023-11-09T20:23:45.711Z,100219.75
2023-11-09T20:26:52.238Z,100226.72
2023-11-09T20:30:08.237Z,100211.78
2023-11-09T20:33:17.854Z,100213.16
2023-11-09T20:36:34.189Z,100217.94
2023-11-09T20:39:50.205Z,100209.69
2023-11-09T20:43:00.251Z,100209.16
2023-11-09T20:46:22.772Z,100205.66
2023-11-09T20:49:38.710Z,100205.88
2023-11-09T20:52:51.207Z,100193.56
2023-11-09T20:56:08.182Z,100193.78
2023-11-09T20:59:13.200Z,100187.38
2023-11-09T21:02:27.988Z,100192.72
2023-11-09T21:05:36.759Z,100180.41
2023-11-09T21:08:45.723Z,100181.75
2023-11-09T21:12:01.203Z,100175.87
2023-11-09T21:15:09.782Z,100178.00
2023-11-09T21:18:24.998Z,100182.53
2023-11-09T21:21:33.955Z,100177.69
2023-11-09T21:24:42.754Z,100164.34
2023-11-09T21:27:51.280Z,100164.56
2023-11-09T21:30:59.694Z,100160.84
2023-11-09T21:34:14.889Z,100168.56
2023-11-09T21:37:23.697Z,100170.97
2023-11-09T21:40:38.728Z,100161.63
2023-11-09T21:44:00.694Z,100164.84
2023-11-09T21:47:15.811Z,100151.78
2023-11-09T21:50:24.247Z,100153.97
2023-11-09T21:53:32.746Z,100148.16
2023-11-09T21:56:48.770Z,100149.19
2023-11-09T22:00:03.769Z,100150.03
2023-11-09T22:03:06.207Z,100140.12
2023-11-09T22:06:20.724Z,100148.44
2023-11-09T22:09:29.842Z,100141.28
2023-11-09T22:12:38.695Z,100145.06
2023-11-09T22:15:55.161Z,100147.75
2023-11-09T22:19:03.228Z,100143.53
2023-11-09T22:22:17.712Z,100153.13
2023-11-09T22:25:19.883Z,100145.97
2023-11-09T22:28:34.720Z,100148.13
2023-11-09T22:31:42.734Z,100142.28
2023-11-09T22:34:51.564Z,100154.34
2023-11-09T22:38:00.745Z,100157.03
2023-11-09T22:41:09.506Z,100150.06
2023-11-09T22:44:17.747Z,100145.81
2023-11-09T22:47:33.001Z,100142.06
2023-11-09T22:50:41.718Z,100151.66
2023-11-09T22:53:56.742Z,100139.66
2023-11-09T22:56:58.568Z,100141.81
2023-11-09T23:00:14.753Z,100141.28
2023-11-09T23:03:17.737Z,100138.87
2023-11-09T23:06:32.739Z,100139.41
2023-11-09T23:09:41.532Z,100128.78
2023-11-09T23:12:50.732Z,100128.00
2023-11-09T23:15:59.577Z,100118.37
2023-11-09T23:19:14.725Z,100120.50
2023-11-09T23:22:29.717Z,100118.66
2023-11-09T23:25:38.600Z,100113.62
2023-11-09T23:28:51.729Z,100120.06
2023-11-09T23:32:00.318Z,100112.34
2023-11-09T23:35:15.787Z,100104.34
2023-11-09T23:38:18.431Z,100101.69
2023-11-09T23:41:33.725Z,100100.91
2023-11-09T23:44:35.936Z,100102.22
2023-11-09T23:47:57.808Z,100097.97
2023-11-09T23:51:20.809Z,100092.13
2023-11-09T23:54:29.938Z,100094.50
2023-11-09T23:57:44.740Z,100094.25
